sensor_id;sensor_type;location;lat;lon;timestamp;P1;durP1;ratioP1;P2;durP2;ratioP2
64297;SDS011;50639;53.270;7.956;2022-12-18T00:00:44;79.38;;;33.05;;
64297;SDS011;50639;53.270;7.956;2022-12-18T00:03:12;81.90;;;33.25;;
64297;SDS011;50639;53.270;7.956;2022-12-18T00:05:45;92.63;;;35.85;;
64297;SDS011;50639;53.270;7.956;2022-12-18T00:08:10;82.20;;;35.78;;
64297;SDS011;50639;53.270;7.956;2022-12-18T00:10:36;88.50;;;35.20;;
64297;SDS011;50639;53.270;7.956;2022-12-18T00:13:01;83.57;;;33.97;;
64297;SDS011;50639;53.270;7.956;2022-12-18T00:15:26;80.65;;;34.05;;
64297;SDS011;50639;53.270;7.956;2022-12-18T00:17:52;78.72;;;33.17;;
64297;SDS011;50639;53.270;7.956;2022-12-18T00:20:17;79.60;;;33.30;;
64297;SDS011;50639;53.270;7.956;2022-12-18T00:22:48;83.40;;;36.50;;
64297;SDS011;50639;53.270;7.956;2022-12-18T00:25:13;87.03;;;36.22;;
64297;SDS011;50639;53.270;7.956;2022-12-18T00:27:39;76.80;;;33.05;;
64297;SDS011;50639;53.270;7.956;2022-12-18T00:30:04;94.55;;;36.47;;
64297;SDS011;50639;53.270;7.956;2022-12-18T00:32:30;81.03;;;33.17;;
64297;SDS011;50639;53.270;7.956;2022-12-18T00:34:55;88.82;;;35.35;;
64297;SDS011;50639;53.270;7.956;2022-12-18T00:37:20;81.40;;;32.03;;
64297;SDS011;50639;53.270;7.956;2022-12-18T00:39:49;83.00;;;35.20;;
64297;SDS011;50639;53.270;7.956;2022-12-18T00:42:15;91.47;;;34.25;;
64297;SDS011;50639;53.270;7.956;2022-12-18T00:47:27;78.13;;;31.80;;
64297;SDS011;50639;53.270;7.956;2022-12-18T00:49:52;90.45;;;35.45;;
64297;SDS011;50639;53.270;7.956;2022-12-18T00:52:17;76.60;;;32.05;;
64297;SDS011;50639;53.270;7.956;2022-12-18T00:54:43;72.90;;;31.52;;
64297;SDS011;50639;53.270;7.956;2022-12-18T00:57:08;84.68;;;33.30;;
64297;SDS011;50639;53.270;7.956;2022-12-18T00:59:33;81.95;;;32.72;;
64297;SDS011;50639;53.270;7.956;2022-12-18T01:01:59;82.63;;;33.08;;
64297;SDS011;50639;53.270;7.956;2022-12-18T01:04:24;82.78;;;33.75;;
64297;SDS011;50639;53.270;7.956;2022-12-18T01:06:49;91.07;;;35.70;;
64297;SDS011;50639;53.270;7.956;2022-12-18T01:09:14;85.45;;;33.78;;
64297;SDS011;50639;53.270;7.956;2022-12-18T01:11:40;83.32;;;33.30;;
64297;SDS011;50639;53.270;7.956;2022-12-18T01:14:05;75.68;;;30.80;;
64297;SDS011;50639;53.270;7.956;2022-12-18T01:16:31;85.25;;;34.38;;
64297;SDS011;50639;53.270;7.956;2022-12-18T01:18:56;77.82;;;32.38;;
64297;SDS011;50639;53.270;7.956;2022-12-18T01:21:22;78.68;;;33.58;;
64297;SDS011;50639;53.270;7.956;2022-12-18T01:23:50;77.25;;;33.05;;
64297;SDS011;50639;53.270;7.956;2022-12-18T01:26:15;74.38;;;31.13;;
64297;SDS011;50639;53.270;7.956;2022-12-18T01:28:42;71.80;;;32.05;;
64297;SDS011;50639;53.270;7.956;2022-12-18T01:31:21;89.50;;;34.53;;
64297;SDS011;50639;53.270;7.956;2022-12-18T01:33:47;93.07;;;35.80;;
64297;SDS011;50639;53.270;7.956;2022-12-18T01:36:23;81.25;;;32.72;;
64297;SDS011;50639;53.270;7.956;2022-12-18T01:38:49;82.00;;;33.38;;
64297;SDS011;50639;53.270;7.956;2022-12-18T01:41:15;86.32;;;34.35;;
64297;SDS011;50639;53.270;7.956;2022-12-18T01:43:43;88.32;;;36.13;;
64297;SDS011;50639;53.270;7.956;2022-12-18T01:46:08;83.70;;;33.88;;
64297;SDS011;50639;53.270;7.956;2022-12-18T01:48:34;97.43;;;35.13;;
64297;SDS011;50639;53.270;7.956;2022-12-18T01:50:59;91.10;;;32.35;;
64297;SDS011;50639;53.270;7.956;2022-12-18T01:53:25;90.05;;;32.38;;
64297;SDS011;50639;53.270;7.956;2022-12-18T01:55:54;97.30;;;35.33;;
64297;SDS011;50639;53.270;7.956;2022-12-18T01:58:21;86.78;;;34.53;;
64297;SDS011;50639;53.270;7.956;2022-12-18T02:00:48;89.00;;;31.65;;
64297;SDS011;50639;53.270;7.956;2022-12-18T02:03:13;82.10;;;32.30;;
64297;SDS011;50639;53.270;7.956;2022-12-18T02:08:34;83.22;;;33.60;;
64297;SDS011;50639;53.270;7.956;2022-12-18T02:16:19;70.93;;;29.73;;
64297;SDS011;50639;53.270;7.956;2022-12-18T02:18:48;77.28;;;31.13;;
64297;SDS011;50639;53.270;7.956;2022-12-18T02:23:56;77.47;;;31.13;;
64297;SDS011;50639;53.270;7.956;2022-12-18T02:29:12;81.82;;;31.10;;
64297;SDS011;50639;53.270;7.956;2022-12-18T02:31:43;68.38;;;29.38;;
64297;SDS011;50639;53.270;7.956;2022-12-18T02:34:10;77.70;;;30.02;;
64297;SDS011;50639;53.270;7.956;2022-12-18T02:36:38;84.78;;;30.08;;
64297;SDS011;50639;53.270;7.956;2022-12-18T02:39:04;83.07;;;30.75;;
64297;SDS011;50639;53.270;7.956;2022-12-18T02:41:30;74.30;;;29.02;;
64297;SDS011;50639;53.270;7.956;2022-12-18T02:43:57;66.38;;;27.88;;
64297;SDS011;50639;53.270;7.956;2022-12-18T02:46:31;76.43;;;28.90;;
64297;SDS011;50639;53.270;7.956;2022-12-18T02:49:01;66.45;;;26.15;;
64297;SDS011;50639;53.270;7.956;2022-12-18T02:51:50;61.88;;;26.42;;
64297;SDS011;50639;53.270;7.956;2022-12-18T02:55:00;62.15;;;25.67;;
64297;SDS011;50639;53.270;7.956;2022-12-18T02:57:11;65.32;;;27.48;;
64297;SDS011;50639;53.270;7.956;2022-12-18T02:59:41;53.67;;;23.17;;
64297;SDS011;50639;53.270;7.956;2022-12-18T03:07:02;55.10;;;24.17;;
64297;SDS011;50639;53.270;7.956;2022-12-18T03:09:32;57.67;;;24.17;;
64297;SDS011;50639;53.270;7.956;2022-12-18T03:12:10;60.10;;;24.48;;
64297;SDS011;50639;53.270;7.956;2022-12-18T03:14:49;51.47;;;22.92;;
64297;SDS011;50639;53.270;7.956;2022-12-18T03:17:16;50.35;;;21.75;;
64297;SDS011;50639;53.270;7.956;2022-12-18T03:19:43;53.33;;;23.08;;
64297;SDS011;50639;53.270;7.956;2022-12-18T03:22:09;58.88;;;22.85;;
64297;SDS011;50639;53.270;7.956;2022-12-18T03:24:46;48.95;;;21.05;;
64297;SDS011;50639;53.270;7.956;2022-12-18T03:27:14;50.80;;;22.10;;
64297;SDS011;50639;53.270;7.956;2022-12-18T03:29:43;44.50;;;20.80;;
64297;SDS011;50639;53.270;7.956;2022-12-18T03:32:21;50.83;;;21.75;;
64297;SDS011;50639;53.270;7.956;2022-12-18T03:34:49;54.37;;;22.77;;
64297;SDS011;50639;53.270;7.956;2022-12-18T03:39:42;44.10;;;19.30;;
64297;SDS011;50639;53.270;7.956;2022-12-18T03:42:11;44.42;;;19.88;;
64297;SDS011;50639;53.270;7.956;2022-12-18T03:50:28;39.35;;;17.02;;
64297;SDS011;50639;53.270;7.956;2022-12-18T03:52:57;39.75;;;18.73;;
64297;SDS011;50639;53.270;7.956;2022-12-18T03:55:26;39.15;;;18.52;;
64297;SDS011;50639;53.270;7.956;2022-12-18T03:57:58;44.25;;;19.58;;
64297;SDS011;50639;53.270;7.956;2022-12-18T04:00:29;42.05;;;18.30;;
64297;SDS011;50639;53.270;7.956;2022-12-18T04:03:04;41.17;;;19.95;;
64297;SDS011;50639;53.270;7.956;2022-12-18T04:05:35;42.92;;;20.10;;
64297;SDS011;50639;53.270;7.956;2022-12-18T04:08:02;40.80;;;19.30;;
64297;SDS011;50639;53.270;7.956;2022-12-18T04:10:29;45.05;;;19.75;;
64297;SDS011;50639;53.270;7.956;2022-12-18T04:12:56;46.13;;;20.10;;
64297;SDS011;50639;53.270;7.956;2022-12-18T04:15:22;41.58;;;18.95;;
64297;SDS011;50639;53.270;7.956;2022-12-18T04:17:49;49.13;;;20.35;;
64297;SDS011;50639;53.270;7.956;2022-12-18T04:20:17;39.30;;;17.73;;
64297;SDS011;50639;53.270;7.956;2022-12-18T04:22:43;40.67;;;18.45;;
64297;SDS011;50639;53.270;7.956;2022-12-18T04:25:12;40.67;;;18.42;;
64297;SDS011;50639;53.270;7.956;2022-12-18T04:27:43;40.85;;;17.92;;
64297;SDS011;50639;53.270;7.956;2022-12-18T04:30:09;40.55;;;18.70;;
64297;SDS011;50639;53.270;7.956;2022-12-18T04:32:34;37.97;;;18.00;;
64297;SDS011;50639;53.270;7.956;2022-12-18T04:35:00;38.40;;;17.95;;
64297;SDS011;50639;53.270;7.956;2022-12-18T04:37:26;40.65;;;18.15;;
64297;SDS011;50639;53.270;7.956;2022-12-18T04:39:51;44.53;;;18.33;;
64297;SDS011;50639;53.270;7.956;2022-12-18T04:42:27;41.38;;;18.52;;
64297;SDS011;50639;53.270;7.956;2022-12-18T04:44:53;42.28;;;17.67;;
64297;SDS011;50639;53.270;7.956;2022-12-18T04:47:18;35.75;;;17.90;;
64297;SDS011;50639;53.270;7.956;2022-12-18T04:49:43;35.80;;;16.83;;
64297;SDS011;50639;53.270;7.956;2022-12-18T04:52:09;41.53;;;17.63;;
64297;SDS011;50639;53.270;7.956;2022-12-18T04:54:34;39.05;;;18.25;;
64297;SDS011;50639;53.270;7.956;2022-12-18T04:56:59;35.47;;;17.73;;
64297;SDS011;50639;53.270;7.956;2022-12-18T04:59:25;39.28;;;17.80;;
64297;SDS011;50639;53.270;7.956;2022-12-18T05:01:50;42.00;;;17.63;;
64297;SDS011;50639;53.270;7.956;2022-12-18T05:04:16;43.95;;;18.33;;
64297;SDS011;50639;53.270;7.956;2022-12-18T05:06:41;39.47;;;17.98;;
64297;SDS011;50639;53.270;7.956;2022-12-18T05:09:06;41.85;;;17.73;;
64297;SDS011;50639;53.270;7.956;2022-12-18T05:11:32;38.08;;;16.42;;
64297;SDS011;50639;53.270;7.956;2022-12-18T05:13:57;38.17;;;16.70;;
64297;SDS011;50639;53.270;7.956;2022-12-18T05:16:22;37.83;;;17.13;;
64297;SDS011;50639;53.270;7.956;2022-12-18T05:18:48;33.58;;;16.00;;
64297;SDS011;50639;53.270;7.956;2022-12-18T05:21:13;37.53;;;17.70;;
64297;SDS011;50639;53.270;7.956;2022-12-18T05:23:38;37.45;;;17.10;;
64297;SDS011;50639;53.270;7.956;2022-12-18T05:26:04;34.42;;;16.92;;
64297;SDS011;50639;53.270;7.956;2022-12-18T05:28:31;33.63;;;16.50;;
64297;SDS011;50639;53.270;7.956;2022-12-18T05:30:57;30.05;;;14.75;;
64297;SDS011;50639;53.270;7.956;2022-12-18T05:33:24;30.73;;;15.68;;
64297;SDS011;50639;53.270;7.956;2022-12-18T05:35:53;35.47;;;16.67;;
64297;SDS011;50639;53.270;7.956;2022-12-18T05:38:19;33.03;;;15.75;;
64297;SDS011;50639;53.270;7.956;2022-12-18T05:40:44;32.20;;;15.82;;
64297;SDS011;50639;53.270;7.956;2022-12-18T05:43:10;30.42;;;15.32;;
64297;SDS011;50639;53.270;7.956;2022-12-18T05:45:38;33.08;;;15.00;;
64297;SDS011;50639;53.270;7.956;2022-12-18T05:48:03;28.80;;;14.60;;
64297;SDS011;50639;53.270;7.956;2022-12-18T05:50:29;25.95;;;13.77;;
64297;SDS011;50639;53.270;7.956;2022-12-18T05:53:00;28.83;;;15.38;;
64297;SDS011;50639;53.270;7.956;2022-12-18T05:55:25;28.10;;;13.05;;
64297;SDS011;50639;53.270;7.956;2022-12-18T05:57:51;28.83;;;14.30;;
64297;SDS011;50639;53.270;7.956;2022-12-18T06:00:16;30.20;;;14.95;;
64297;SDS011;50639;53.270;7.956;2022-12-18T06:02:41;30.08;;;14.77;;
64297;SDS011;50639;53.270;7.956;2022-12-18T06:05:07;28.48;;;13.52;;
64297;SDS011;50639;53.270;7.956;2022-12-18T06:07:32;29.05;;;14.77;;
64297;SDS011;50639;53.270;7.956;2022-12-18T06:09:57;25.73;;;12.52;;
64297;SDS011;50639;53.270;7.956;2022-12-18T06:12:23;33.70;;;14.75;;
64297;SDS011;50639;53.270;7.956;2022-12-18T06:14:48;24.88;;;13.15;;
64297;SDS011;50639;53.270;7.956;2022-12-18T06:17:13;31.25;;;14.18;;
64297;SDS011;50639;53.270;7.956;2022-12-18T06:19:39;25.27;;;12.73;;
64297;SDS011;50639;53.270;7.956;2022-12-18T06:22:04;25.58;;;12.77;;
64297;SDS011;50639;53.270;7.956;2022-12-18T06:24:29;29.58;;;13.18;;
64297;SDS011;50639;53.270;7.956;2022-12-18T06:26:54;22.05;;;11.45;;
64297;SDS011;50639;53.270;7.956;2022-12-18T06:29:20;27.00;;;12.93;;
64297;SDS011;50639;53.270;7.956;2022-12-18T06:31:45;22.10;;;11.88;;
64297;SDS011;50639;53.270;7.956;2022-12-18T06:34:11;29.13;;;13.90;;
64297;SDS011;50639;53.270;7.956;2022-12-18T06:36:36;28.38;;;13.05;;
64297;SDS011;50639;53.270;7.956;2022-12-18T06:39:01;26.58;;;12.23;;
64297;SDS011;50639;53.270;7.956;2022-12-18T06:41:27;22.40;;;12.18;;
64297;SDS011;50639;53.270;7.956;2022-12-18T06:43:52;26.52;;;12.70;;
64297;SDS011;50639;53.270;7.956;2022-12-18T06:46:17;24.50;;;11.82;;
64297;SDS011;50639;53.270;7.956;2022-12-18T06:48:46;24.92;;;11.57;;
64297;SDS011;50639;53.270;7.956;2022-12-18T06:51:11;21.35;;;12.02;;
64297;SDS011;50639;53.270;7.956;2022-12-18T06:53:36;24.45;;;12.57;;
64297;SDS011;50639;53.270;7.956;2022-12-18T06:56:03;21.80;;;11.75;;
64297;SDS011;50639;53.270;7.956;2022-12-18T06:58:28;25.75;;;12.38;;
64297;SDS011;50639;53.270;7.956;2022-12-18T07:00:53;28.08;;;12.48;;
64297;SDS011;50639;53.270;7.956;2022-12-18T07:03:24;24.50;;;12.35;;
64297;SDS011;50639;53.270;7.956;2022-12-18T07:05:49;23.98;;;12.15;;
64297;SDS011;50639;53.270;7.956;2022-12-18T07:08:14;46.75;;;24.70;;
64297;SDS011;50639;53.270;7.956;2022-12-18T07:10:40;29.63;;;14.65;;
64297;SDS011;50639;53.270;7.956;2022-12-18T07:13:06;23.40;;;12.57;;
64297;SDS011;50639;53.270;7.956;2022-12-18T07:15:31;24.58;;;12.55;;
64297;SDS011;50639;53.270;7.956;2022-12-18T07:17:56;26.50;;;14.77;;
64297;SDS011;50639;53.270;7.956;2022-12-18T07:20:22;25.20;;;13.65;;
64297;SDS011;50639;53.270;7.956;2022-12-18T07:22:47;26.25;;;11.73;;
64297;SDS011;50639;53.270;7.956;2022-12-18T07:25:12;22.55;;;11.38;;
64297;SDS011;50639;53.270;7.956;2022-12-18T07:27:37;22.95;;;12.15;;
64297;SDS011;50639;53.270;7.956;2022-12-18T07:30:03;24.75;;;13.13;;
64297;SDS011;50639;53.270;7.956;2022-12-18T07:32:29;21.45;;;11.48;;
64297;SDS011;50639;53.270;7.956;2022-12-18T07:34:55;25.98;;;12.80;;
64297;SDS011;50639;53.270;7.956;2022-12-18T07:37:20;24.08;;;12.55;;
64297;SDS011;50639;53.270;7.956;2022-12-18T07:39:45;26.27;;;12.10;;
64297;SDS011;50639;53.270;7.956;2022-12-18T07:42:11;23.00;;;11.63;;
64297;SDS011;50639;53.270;7.956;2022-12-18T07:44:55;23.45;;;12.60;;
64297;SDS011;50639;53.270;7.956;2022-12-18T07:47:20;21.63;;;12.75;;
64297;SDS011;50639;53.270;7.956;2022-12-18T07:49:45;21.83;;;11.63;;
64297;SDS011;50639;53.270;7.956;2022-12-18T07:52:10;22.45;;;11.65;;
64297;SDS011;50639;53.270;7.956;2022-12-18T07:54:37;26.80;;;13.45;;
64297;SDS011;50639;53.270;7.956;2022-12-18T07:57:02;26.27;;;14.93;;
64297;SDS011;50639;53.270;7.956;2022-12-18T07:59:28;25.50;;;13.63;;
64297;SDS011;50639;53.270;7.956;2022-12-18T08:01:53;24.35;;;12.57;;
64297;SDS011;50639;53.270;7.956;2022-12-18T08:04:18;22.92;;;11.63;;
64297;SDS011;50639;53.270;7.956;2022-12-18T08:06:44;23.20;;;11.15;;
64297;SDS011;50639;53.270;7.956;2022-12-18T08:09:09;27.75;;;11.23;;
64297;SDS011;50639;53.270;7.956;2022-12-18T08:11:34;18.30;;;10.60;;
64297;SDS011;50639;53.270;7.956;2022-12-18T08:14:00;21.75;;;11.48;;
64297;SDS011;50639;53.270;7.956;2022-12-18T08:16:25;20.83;;;10.40;;
64297;SDS011;50639;53.270;7.956;2022-12-18T08:18:51;23.48;;;11.70;;
64297;SDS011;50639;53.270;7.956;2022-12-18T08:21:18;21.08;;;11.98;;
64297;SDS011;50639;53.270;7.956;2022-12-18T08:23:46;19.58;;;11.23;;
64297;SDS011;50639;53.270;7.956;2022-12-18T08:26:11;21.40;;;11.32;;
64297;SDS011;50639;53.270;7.956;2022-12-18T08:28:37;18.40;;;10.98;;
64297;SDS011;50639;53.270;7.956;2022-12-18T08:31:02;16.67;;;9.63;;
64297;SDS011;50639;53.270;7.956;2022-12-18T08:33:27;20.65;;;10.05;;
64297;SDS011;50639;53.270;7.956;2022-12-18T08:35:53;20.25;;;9.98;;
64297;SDS011;50639;53.270;7.956;2022-12-18T08:38:18;19.63;;;9.63;;
64297;SDS011;50639;53.270;7.956;2022-12-18T08:40:44;20.95;;;10.45;;
64297;SDS011;50639;53.270;7.956;2022-12-18T08:43:09;15.40;;;8.85;;
64297;SDS011;50639;53.270;7.956;2022-12-18T08:45:54;19.60;;;10.35;;
64297;SDS011;50639;53.270;7.956;2022-12-18T08:48:19;17.38;;;9.68;;
64297;SDS011;50639;53.270;7.956;2022-12-18T08:50:52;15.25;;;8.82;;
64297;SDS011;50639;53.270;7.956;2022-12-18T08:53:18;19.92;;;9.40;;
64297;SDS011;50639;53.270;7.956;2022-12-18T08:55:43;20.52;;;11.63;;
64297;SDS011;50639;53.270;7.956;2022-12-18T08:58:08;17.67;;;10.52;;
64297;SDS011;50639;53.270;7.956;2022-12-18T09:00:34;16.92;;;9.77;;
64297;SDS011;50639;53.270;7.956;2022-12-18T09:02:59;18.33;;;9.55;;
64297;SDS011;50639;53.270;7.956;2022-12-18T09:05:24;16.05;;;8.70;;
64297;SDS011;50639;53.270;7.956;2022-12-18T09:07:50;14.85;;;8.82;;
64297;SDS011;50639;53.270;7.956;2022-12-18T09:10:16;16.27;;;8.75;;
64297;SDS011;50639;53.270;7.956;2022-12-18T09:12:41;18.88;;;9.80;;
64297;SDS011;50639;53.270;7.956;2022-12-18T09:15:06;14.75;;;8.50;;
64297;SDS011;50639;53.270;7.956;2022-12-18T09:17:32;14.82;;;8.68;;
64297;SDS011;50639;53.270;7.956;2022-12-18T09:19:57;15.50;;;7.95;;
64297;SDS011;50639;53.270;7.956;2022-12-18T09:22:22;18.20;;;9.13;;
64297;SDS011;50639;53.270;7.956;2022-12-18T09:24:48;14.30;;;8.02;;
64297;SDS011;50639;53.270;7.956;2022-12-18T09:27:13;14.18;;;8.20;;
64297;SDS011;50639;53.270;7.956;2022-12-18T09:29:39;14.25;;;7.90;;
64297;SDS011;50639;53.270;7.956;2022-12-18T09:32:04;17.80;;;8.63;;
64297;SDS011;50639;53.270;7.956;2022-12-18T09:34:29;15.90;;;7.80;;
64297;SDS011;50639;53.270;7.956;2022-12-18T09:36:55;15.77;;;8.68;;
64297;SDS011;50639;53.270;7.956;2022-12-18T09:39:20;13.73;;;8.00;;
64297;SDS011;50639;53.270;7.956;2022-12-18T09:41:46;14.05;;;7.50;;
64297;SDS011;50639;53.270;7.956;2022-12-18T09:46:58;17.73;;;8.73;;
64297;SDS011;50639;53.270;7.956;2022-12-18T09:49:26;12.90;;;7.63;;
64297;SDS011;50639;53.270;7.956;2022-12-18T09:51:54;20.30;;;8.40;;
64297;SDS011;50639;53.270;7.956;2022-12-18T09:54:33;14.82;;;7.90;;
64297;SDS011;50639;53.270;7.956;2022-12-18T09:56:58;13.45;;;7.32;;
64297;SDS011;50639;53.270;7.956;2022-12-18T09:59:24;15.40;;;8.63;;
64297;SDS011;50639;53.270;7.956;2022-12-18T10:01:51;68.35;;;34.33;;
64297;SDS011;50639;53.270;7.956;2022-12-18T10:04:17;25.13;;;13.68;;
64297;SDS011;50639;53.270;7.956;2022-12-18T10:16:43;14.75;;;8.20;;
64297;SDS011;50639;53.270;7.956;2022-12-18T10:22:03;15.70;;;6.93;;
64297;SDS011;50639;53.270;7.956;2022-12-18T10:24:38;14.32;;;7.07;;
64297;SDS011;50639;53.270;7.956;2022-12-18T10:27:18;12.88;;;7.05;;
64297;SDS011;50639;53.270;7.956;2022-12-18T10:29:46;15.55;;;7.63;;
64297;SDS011;50639;53.270;7.956;2022-12-18T10:32:19;14.38;;;8.15;;
64297;SDS011;50639;53.270;7.956;2022-12-18T10:34:45;13.23;;;6.95;;
64297;SDS011;50639;53.270;7.956;2022-12-18T10:37:13;16.25;;;8.55;;
64297;SDS011;50639;53.270;7.956;2022-12-18T10:39:40;18.85;;;8.32;;
64297;SDS011;50639;53.270;7.956;2022-12-18T10:42:26;14.13;;;8.05;;
64297;SDS011;50639;53.270;7.956;2022-12-18T10:45:00;12.27;;;6.82;;
64297;SDS011;50639;53.270;7.956;2022-12-18T10:47:26;14.68;;;7.78;;
64297;SDS011;50639;53.270;7.956;2022-12-18T10:49:52;14.63;;;7.85;;
64297;SDS011;50639;53.270;7.956;2022-12-18T10:52:18;17.23;;;8.82;;
64297;SDS011;50639;53.270;7.956;2022-12-18T10:57:20;15.63;;;8.68;;
64297;SDS011;50639;53.270;7.956;2022-12-18T10:59:55;21.67;;;10.75;;
64297;SDS011;50639;53.270;7.956;2022-12-18T11:02:28;22.73;;;11.47;;
64297;SDS011;50639;53.270;7.956;2022-12-18T11:04:54;21.50;;;10.32;;
64297;SDS011;50639;53.270;7.956;2022-12-18T11:07:19;19.48;;;9.38;;
64297;SDS011;50639;53.270;7.956;2022-12-18T11:09:45;19.92;;;9.73;;
64297;SDS011;50639;53.270;7.956;2022-12-18T11:12:28;22.25;;;8.63;;
64297;SDS011;50639;53.270;7.956;2022-12-18T11:14:54;14.10;;;8.05;;
64297;SDS011;50639;53.270;7.956;2022-12-18T11:17:30;15.30;;;8.02;;
64297;SDS011;50639;53.270;7.956;2022-12-18T11:20:00;14.90;;;8.50;;
64297;SDS011;50639;53.270;7.956;2022-12-18T11:22:32;17.38;;;8.20;;
64297;SDS011;50639;53.270;7.956;2022-12-18T11:24:59;20.95;;;9.48;;
64297;SDS011;50639;53.270;7.956;2022-12-18T11:27:25;30.97;;;17.27;;
64297;SDS011;50639;53.270;7.956;2022-12-18T11:29:51;16.40;;;9.75;;
64297;SDS011;50639;53.270;7.956;2022-12-18T11:32:32;18.50;;;9.73;;
64297;SDS011;50639;53.270;7.956;2022-12-18T11:35:01;18.67;;;9.18;;
64297;SDS011;50639;53.270;7.956;2022-12-18T11:37:27;17.88;;;8.98;;
64297;SDS011;50639;53.270;7.956;2022-12-18T11:39:58;14.77;;;7.68;;
64297;SDS011;50639;53.270;7.956;2022-12-18T11:42:39;13.35;;;7.68;;
64297;SDS011;50639;53.270;7.956;2022-12-18T11:47:38;14.63;;;7.15;;
64297;SDS011;50639;53.270;7.956;2022-12-18T11:50:12;11.57;;;7.13;;
64297;SDS011;50639;53.270;7.956;2022-12-18T11:52:39;12.82;;;7.03;;
64297;SDS011;50639;53.270;7.956;2022-12-18T11:55:10;11.43;;;6.73;;
64297;SDS011;50639;53.270;7.956;2022-12-18T11:57:39;11.90;;;6.40;;
64297;SDS011;50639;53.270;7.956;2022-12-18T12:00:11;12.48;;;6.88;;
64297;SDS011;50639;53.270;7.956;2022-12-18T12:05:48;12.55;;;7.15;;
64297;SDS011;50639;53.270;7.956;2022-12-18T12:13:29;16.55;;;6.85;;
64297;SDS011;50639;53.270;7.956;2022-12-18T12:26:10;12.75;;;6.28;;
64297;SDS011;50639;53.270;7.956;2022-12-18T12:31:32;12.05;;;6.45;;
64297;SDS011;50639;53.270;7.956;2022-12-18T12:36:53;12.95;;;7.35;;
64297;SDS011;50639;53.270;7.956;2022-12-18T12:39:21;13.00;;;7.57;;
64297;SDS011;50639;53.270;7.956;2022-12-18T12:41:47;10.98;;;6.45;;
64297;SDS011;50639;53.270;7.956;2022-12-18T12:44:50;11.50;;;6.45;;
64297;SDS011;50639;53.270;7.956;2022-12-18T12:47:19;11.40;;;6.35;;
64297;SDS011;50639;53.270;7.956;2022-12-18T12:49:45;12.45;;;7.05;;
64297;SDS011;50639;53.270;7.956;2022-12-18T12:52:17;12.10;;;5.82;;
64297;SDS011;50639;53.270;7.956;2022-12-18T12:54:44;13.50;;;7.43;;
64297;SDS011;50639;53.270;7.956;2022-12-18T13:02:08;19.38;;;9.15;;
64297;SDS011;50639;53.270;7.956;2022-12-18T13:07:20;12.25;;;7.03;;
64297;SDS011;50639;53.270;7.956;2022-12-18T13:12:33;12.75;;;7.15;;
64297;SDS011;50639;53.270;7.956;2022-12-18T13:15:21;11.90;;;6.13;;
64297;SDS011;50639;53.270;7.956;2022-12-18T13:17:46;12.50;;;7.00;;
64297;SDS011;50639;53.270;7.956;2022-12-18T13:20:12;12.90;;;6.78;;
64297;SDS011;50639;53.270;7.956;2022-12-18T13:22:45;20.70;;;10.23;;
64297;SDS011;50639;53.270;7.956;2022-12-18T13:27:57;39.38;;;17.85;;
64297;SDS011;50639;53.270;7.956;2022-12-18T13:35:42;41.40;;;22.00;;
64297;SDS011;50639;53.270;7.956;2022-12-18T13:38:22;41.88;;;22.45;;
64297;SDS011;50639;53.270;7.956;2022-12-18T13:43:22;38.22;;;20.20;;
64297;SDS011;50639;53.270;7.956;2022-12-18T13:48:23;38.45;;;20.92;;
64297;SDS011;50639;53.270;7.956;2022-12-18T13:50:53;38.67;;;19.25;;
64297;SDS011;50639;53.270;7.956;2022-12-18T13:53:21;31.02;;;15.98;;
64297;SDS011;50639;53.270;7.956;2022-12-18T13:55:47;33.78;;;18.40;;
64297;SDS011;50639;53.270;7.956;2022-12-18T13:58:12;40.30;;;22.67;;
64297;SDS011;50639;53.270;7.956;2022-12-18T14:00:41;447.83;;;178.15;;
64297;SDS011;50639;53.270;7.956;2022-12-18T14:03:17;358.02;;;147.75;;
64297;SDS011;50639;53.270;7.956;2022-12-18T14:05:43;48.77;;;26.80;;
64297;SDS011;50639;53.270;7.956;2022-12-18T14:08:13;18.60;;;10.77;;
64297;SDS011;50639;53.270;7.956;2022-12-18T14:10:40;20.98;;;11.88;;
64297;SDS011;50639;53.270;7.956;2022-12-18T14:13:06;21.45;;;12.80;;
64297;SDS011;50639;53.270;7.956;2022-12-18T14:15:32;22.80;;;14.65;;
64297;SDS011;50639;53.270;7.956;2022-12-18T14:18:13;19.80;;;12.38;;
64297;SDS011;50639;53.270;7.956;2022-12-18T14:20:43;17.27;;;11.48;;
64297;SDS011;50639;53.270;7.956;2022-12-18T14:25:56;14.02;;;7.22;;
64297;SDS011;50639;53.270;7.956;2022-12-18T14:28:22;11.32;;;6.93;;
64297;SDS011;50639;53.270;7.956;2022-12-18T14:30:48;11.68;;;7.10;;
64297;SDS011;50639;53.270;7.956;2022-12-18T14:33:24;12.65;;;7.28;;
64297;SDS011;50639;53.270;7.956;2022-12-18T14:36:00;13.05;;;7.60;;
64297;SDS011;50639;53.270;7.956;2022-12-18T14:38:27;11.95;;;6.32;;
64297;SDS011;50639;53.270;7.956;2022-12-18T14:41:05;11.65;;;6.97;;
64297;SDS011;50639;53.270;7.956;2022-12-18T14:43:33;10.30;;;5.93;;
64297;SDS011;50639;53.270;7.956;2022-12-18T14:45:59;13.45;;;6.22;;
64297;SDS011;50639;53.270;7.956;2022-12-18T14:48:32;11.60;;;6.47;;
64297;SDS011;50639;53.270;7.956;2022-12-18T14:51:00;11.32;;;6.13;;
64297;SDS011;50639;53.270;7.956;2022-12-18T14:53:28;12.45;;;6.60;;
64297;SDS011;50639;53.270;7.956;2022-12-18T14:55:55;12.38;;;6.70;;
64297;SDS011;50639;53.270;7.956;2022-12-18T14:58:21;14.32;;;6.53;;
64297;SDS011;50639;53.270;7.956;2022-12-18T15:00:46;11.50;;;6.47;;
64297;SDS011;50639;53.270;7.956;2022-12-18T15:03:12;11.02;;;6.32;;
64297;SDS011;50639;53.270;7.956;2022-12-18T15:05:42;11.35;;;6.07;;
64297;SDS011;50639;53.270;7.956;2022-12-18T15:08:26;11.45;;;6.13;;
64297;SDS011;50639;53.270;7.956;2022-12-18T15:10:54;11.82;;;6.18;;
64297;SDS011;50639;53.270;7.956;2022-12-18T15:13:23;12.55;;;6.90;;
64297;SDS011;50639;53.270;7.956;2022-12-18T15:15:49;11.52;;;6.68;;
64297;SDS011;50639;53.270;7.956;2022-12-18T15:18:16;12.98;;;6.32;;
64297;SDS011;50639;53.270;7.956;2022-12-18T15:20:46;10.80;;;6.20;;
64297;SDS011;50639;53.270;7.956;2022-12-18T15:25:48;10.52;;;6.78;;
64297;SDS011;50639;53.270;7.956;2022-12-18T15:28:15;12.27;;;7.30;;
64297;SDS011;50639;53.270;7.956;2022-12-18T15:30:57;10.77;;;5.97;;
64297;SDS011;50639;53.270;7.956;2022-12-18T15:33:23;12.20;;;6.50;;
64297;SDS011;50639;53.270;7.956;2022-12-18T15:36:09;10.02;;;6.05;;
64297;SDS011;50639;53.270;7.956;2022-12-18T15:38:35;15.70;;;7.10;;
64297;SDS011;50639;53.270;7.956;2022-12-18T15:41:00;11.40;;;6.53;;
64297;SDS011;50639;53.270;7.956;2022-12-18T15:43:26;16.17;;;6.82;;
64297;SDS011;50639;53.270;7.956;2022-12-18T15:46:05;11.30;;;6.50;;
64297;SDS011;50639;53.270;7.956;2022-12-18T15:48:32;11.23;;;6.05;;
64297;SDS011;50639;53.270;7.956;2022-12-18T15:50:58;10.23;;;6.53;;
64297;SDS011;50639;53.270;7.956;2022-12-18T15:53:24;11.15;;;6.05;;
64297;SDS011;50639;53.270;7.956;2022-12-18T15:55:50;10.18;;;5.90;;
64297;SDS011;50639;53.270;7.956;2022-12-18T15:58:34;12.90;;;6.80;;
64297;SDS011;50639;53.270;7.956;2022-12-18T16:00:59;16.65;;;8.85;;
64297;SDS011;50639;53.270;7.956;2022-12-18T16:03:25;12.18;;;6.85;;
64297;SDS011;50639;53.270;7.956;2022-12-18T16:05:51;12.23;;;6.72;;
64297;SDS011;50639;53.270;7.956;2022-12-18T16:08:16;11.60;;;6.32;;
64297;SDS011;50639;53.270;7.956;2022-12-18T16:10:42;14.75;;;9.07;;
64297;SDS011;50639;53.270;7.956;2022-12-18T16:13:11;11.52;;;6.97;;